createdAt,value
2018-08-23T00:00:23.642Z,21.10
2018-08-23T00:02:53.143Z,20.80
2018-08-23T00:05:22.585Z,20.50
2018-08-23T00:08:02.461Z,19.60
2018-08-23T00:10:30.854Z,19.50
2018-08-23T00:12:59.966Z,19.50
2018-08-23T00:15:32.634Z,19.40
2018-08-23T00:18:01.047Z,19.40
2018-08-23T00:20:29.518Z,19.90
2018-08-23T00:22:58.197Z,19.80
2018-08-23T00:25:26.566Z,19.30
2018-08-23T00:27:55.025Z,19.30
2018-08-23T00:30:29.655Z,19.30
2018-08-23T00:32:58.783Z,18.90
2018-08-23T00:35:27.178Z,18.80
2018-08-23T00:37:55.623Z,18.50
2018-08-23T00:40:24.153Z,18.60
2018-08-23T00:42:57.902Z,19.30
2018-08-23T00:45:26.361Z,19.70
2018-08-23T00:47:54.795Z,19.10
2018-08-23T00:51:04.594Z,19.60
2018-08-23T00:53:34.619Z,19.30
2018-08-23T00:56:17.463Z,18.90
2018-08-23T00:59:02.639Z,18.60
2018-08-23T01:01:32.710Z,18.80
2018-08-23T01:04:01.138Z,19.40
2018-08-23T01:06:44.364Z,19.60
2018-08-23T01:09:13.753Z,19.70
2018-08-23T01:11:42.300Z,19.20
2018-08-23T01:14:10.768Z,19.00
2018-08-23T01:16:39.198Z,19.40
2018-08-23T01:19:12.962Z,19.80
2018-08-23T01:21:45.635Z,20.10
2018-08-23T01:24:13.995Z,20.10
2018-08-23T01:26:42.388Z,20.10
2018-08-23T01:29:28.915Z,20.10
2018-08-23T01:32:13.180Z,20.10
2018-08-23T01:34:41.429Z,20.20
2018-08-23T01:37:09.763Z,19.90
2018-08-23T01:39:38.240Z,19.90
2018-08-23T01:42:06.667Z,19.10
2018-08-23T01:44:41.226Z,18.80
2018-08-23T01:47:09.624Z,18.60
2018-08-23T01:49:38.084Z,18.40
2018-08-23T01:52:06.492Z,19.10
2018-08-23T01:54:34.901Z,19.50
2018-08-23T01:57:03.341Z,18.80
2018-08-23T01:59:31.785Z,18.90
2018-08-23T02:02:04.457Z,18.30
2018-08-23T02:04:32.883Z,18.00
2018-08-23T02:07:01.412Z,18.00
2018-08-23T02:09:29.851Z,18.40
2018-08-23T02:11:58.267Z,18.50
2018-08-23T02:14:26.959Z,18.90
2018-08-23T02:16:55.434Z,19.20
2018-08-23T02:19:23.919Z,19.30
2018-08-23T02:21:52.356Z,19.30
2018-08-23T02:24:24.996Z,18.40
2018-08-23T02:26:53.490Z,17.80
2018-08-23T02:29:33.210Z,17.60
2018-08-23T02:32:01.539Z,17.70
2018-08-23T02:34:34.073Z,18.30
2018-08-23T02:37:02.438Z,18.70
2018-08-23T02:39:30.832Z,18.70
2018-08-23T02:41:59.239Z,19.10
2018-08-23T02:44:27.688Z,19.00
2018-08-23T02:46:56.103Z,18.70
2018-08-23T02:49:24.558Z,18.80
2018-08-23T02:51:53.181Z,19.00
2018-08-23T02:54:21.702Z,19.20
2018-08-23T02:56:57.047Z,19.30
2018-08-23T02:59:25.679Z,19.00
2018-08-23T03:01:54.103Z,19.20
2018-08-23T03:04:24.660Z,19.30
2018-08-23T03:06:57.367Z,19.20
2018-08-23T03:09:29.485Z,19.20
2018-08-23T03:11:59.125Z,19.10
2018-08-23T03:14:28.959Z,19.00
2018-08-23T03:17:33.344Z,18.50
2018-08-23T03:20:07.391Z,18.20
2018-08-23T03:22:36.115Z,17.80
2018-08-23T03:25:05.927Z,18.20
2018-08-23T03:27:34.439Z,18.30
2018-08-23T03:30:03.679Z,18.00
2018-08-23T03:32:32.135Z,17.60
2018-08-23T03:35:01.218Z,17.70
2018-08-23T03:37:29.687Z,17.40
2018-08-23T03:39:58.208Z,17.30
2018-08-23T03:42:27.075Z,17.40
2018-08-23T03:44:56.448Z,17.40
2018-08-23T03:47:25.291Z,17.60
2018-08-23T03:49:53.850Z,17.80
2018-08-23T03:52:23.566Z,17.60
2018-08-23T03:54:57.742Z,17.90
2018-08-23T03:57:31.598Z,18.20
2018-08-23T04:00:00.131Z,18.00
2018-08-23T04:02:28.557Z,17.30
2018-08-23T04:05:04.855Z,17.40
2018-08-23T04:07:33.291Z,17.20
2018-08-23T04:10:01.754Z,17.40
2018-08-23T04:12:30.140Z,18.10
2018-08-23T04:15:14.107Z,18.30
2018-08-23T04:17:42.552Z,18.10
2018-08-23T04:20:11.051Z,18.20
2018-08-23T04:22:39.482Z,17.80
2018-08-23T04:25:08.019Z,17.50
2018-08-23T04:27:36.632Z,17.40
2018-08-23T04:30:06.191Z,17.80
2018-08-23T04:32:39.883Z,18.10
2018-08-23T04:35:10.557Z,18.10
2018-08-23T04:37:39.023Z,17.80
2018-08-23T04:40:07.953Z,18.00
2018-08-23T04:42:36.476Z,18.30
2018-08-23T04:45:17.994Z,17.90
2018-08-23T04:48:08.248Z,17.50
2018-08-23T04:50:37.366Z,17.20
2018-08-23T04:53:05.649Z,17.10
2018-08-23T04:55:33.891Z,17.30
2018-08-23T04:58:02.804Z,17.20
2018-08-23T05:00:31.496Z,17.60
2018-08-23T05:02:59.891Z,18.10
2018-08-23T05:05:28.109Z,18.00
2018-08-23T05:07:56.340Z,18.30
2018-08-23T05:10:24.603Z,18.50
2018-08-23T05:12:52.827Z,18.80
2018-08-23T05:15:21.054Z,18.90
2018-08-23T05:17:49.320Z,18.90
2018-08-23T05:20:17.510Z,19.00
2018-08-23T05:22:52.668Z,18.90
2018-08-23T05:25:22.449Z,18.90
2018-08-23T05:28:06.183Z,19.10
2018-08-23T05:30:34.513Z,19.30
2018-08-23T05:33:08.175Z,19.40
2018-08-23T05:35:36.386Z,19.50
2018-08-23T05:38:06.020Z,19.70
2018-08-23T05:40:39.537Z,20.10
2018-08-23T05:43:07.733Z,20.30
2018-08-23T05:45:41.264Z,20.30
2018-08-23T05:48:18.002Z,20.40
2018-08-23T05:50:46.217Z,20.30
2018-08-23T05:53:15.989Z,20.20
2018-08-23T05:55:44.904Z,20.50
2018-08-23T05:58:17.650Z,20.80
2018-08-23T06:00:45.850Z,21.00
2018-08-23T06:03:15.444Z,21.00
2018-08-23T06:05:44.026Z,20.90
2018-08-23T06:08:12.379Z,20.40
2018-08-23T06:10:40.599Z,20.60
2018-08-23T06:13:08.899Z,21.70
2018-08-23T06:15:42.575Z,22.50
2018-08-23T06:18:10.800Z,22.90
2018-08-23T06:20:39.025Z,23.20
2018-08-23T06:23:07.247Z,22.40
2018-08-23T06:25:35.456Z,22.80
2018-08-23T06:28:08.813Z,23.20
2018-08-23T06:30:37.014Z,23.20
2018-08-23T06:33:05.317Z,23.40
2018-08-23T06:35:34.428Z,23.40
2018-08-23T06:38:02.638Z,23.50
2018-08-23T06:40:30.845Z,23.80
2018-08-23T06:43:04.337Z,24.10
2018-08-23T06:45:32.584Z,24.40
2018-08-23T06:48:02.869Z,24.60
2018-08-23T06:50:31.082Z,25.00
2018-08-23T06:52:59.275Z,25.50
2018-08-23T06:55:32.979Z,25.70
2018-08-23T06:58:02.314Z,25.70
2018-08-23T07:00:30.921Z,25.80
2018-08-23T07:02:59.150Z,26.30
2018-08-23T07:05:27.456Z,25.90
2018-08-23T07:07:55.651Z,25.80
2018-08-23T07:10:23.863Z,25.60
2018-08-23T07:12:52.085Z,23.90
2018-08-23T07:15:20.302Z,24.10
2018-08-23T07:17:48.662Z,24.30
2018-08-23T07:20:17.238Z,24.40
2018-08-23T07:22:45.463Z,24.70
2018-08-23T07:25:20.440Z,24.80
2018-08-23T07:27:48.663Z,25.30
2018-08-23T07:30:18.640Z,25.50
2018-08-23T07:32:48.120Z,25.60
2018-08-23T07:35:17.895Z,25.00
2018-08-23T07:37:49.477Z,25.60
2018-08-23T07:40:18.865Z,25.70
2018-08-23T07:42:48.410Z,24.40
2018-08-23T07:45:16.634Z,24.50
2018-08-23T07:47:46.168Z,24.60
2018-08-23T07:50:14.521Z,24.60
2018-08-23T07:52:43.959Z,24.70
2018-08-23T07:55:12.388Z,24.20
2018-08-23T07:57:41.508Z,23.70
2018-08-23T08:00:25.359Z,23.80
2018-08-23T08:02:53.819Z,23.20
2018-08-23T08:05:24.145Z,23.20
2018-08-23T08:07:52.576Z,23.20
2018-08-23T08:10:21.041Z,23.20
2018-08-23T08:12:49.441Z,22.90
2018-08-23T08:15:18.182Z,23.00
2018-08-23T08:17:46.475Z,23.00
2018-08-23T08:20:14.907Z,22.80
2018-08-23T08:22:43.293Z,23.30
2018-08-23T08:25:20.913Z,23.10
2018-08-23T08:27:50.339Z,23.00
2018-08-23T08:31:24.258Z,23.00
2018-08-23T08:33:56.522Z,23.00
2018-08-23T08:36:26.107Z,23.20
2018-08-23T08:38:54.574Z,23.10
2018-08-23T08:41:23.010Z,23.30
2018-08-23T08:43:51.389Z,23.30
2018-08-23T08:46:19.747Z,23.20
2018-08-23T08:48:48.143Z,23.80
2018-08-23T08:51:27.828Z,24.10
2018-08-23T08:53:56.964Z,24.50
2018-08-23T08:56:31.675Z,25.40
2018-08-23T08:59:00.259Z,25.60
2018-08-23T09:01:28.719Z,25.60
2018-08-23T09:03:57.212Z,26.60
2018-08-23T09:06:30.622Z,27.10
2018-08-23T09:09:00.567Z,26.80
2018-08-23T09:11:28.995Z,26.20
2018-08-23T09:14:01.665Z,26.40
2018-08-23T09:16:30.148Z,27.10
2018-08-23T09:19:03.194Z,27.80
2018-08-23T09:21:32.135Z,27.40
2018-08-23T09:24:19.259Z,27.20
2018-08-23T09:26:47.595Z,27.00
2018-08-23T09:29:29.655Z,28.10
2018-08-23T09:32:08.037Z,28.70
2018-08-23T09:34:36.599Z,28.90
2018-08-23T09:37:05.063Z,29.10
2018-08-23T09:39:33.476Z,29.20
2018-08-23T09:42:01.852Z,29.00
2018-08-23T09:44:30.331Z,29.40
2018-08-23T09:47:03.844Z,29.30
2018-08-23T09:49:32.216Z,29.50
2018-08-23T09:52:00.614Z,29.90
2018-08-23T09:54:30.107Z,30.40
2018-08-23T09:56:58.539Z,30.50
2018-08-23T09:59:28.203Z,30.70
2018-08-23T10:02:01.896Z,30.40
2018-08-23T10:04:35.663Z,30.40
2018-08-23T10:07:09.558Z,30.80
2018-08-23T10:09:43.362Z,31.30
2018-08-23T10:12:17.092Z,31.30
2018-08-23T10:14:50.799Z,30.80
2018-08-23T10:17:24.779Z,31.20
2018-08-23T10:19:58.663Z,30.60
2018-08-23T10:22:32.455Z,31.50
2018-08-23T10:25:05.124Z,32.20
2018-08-23T10:27:33.538Z,30.30
2018-08-23T10:30:01.928Z,29.90
2018-08-23T10:32:30.462Z,30.30
2018-08-23T10:34:58.861Z,32.00
2018-08-23T10:37:27.378Z,33.20
2018-08-23T10:39:55.702Z,32.80
2018-08-23T10:42:24.130Z,32.40
2018-08-23T10:44:52.528Z,33.80
2018-08-23T10:47:26.279Z,33.10
2018-08-23T10:49:54.680Z,32.80
2018-08-23T10:52:23.074Z,33.70
2018-08-23T10:54:51.456Z,34.00
2018-08-23T10:57:19.755Z,33.80
2018-08-23T10:59:48.247Z,33.20
2018-08-23T11:02:16.666Z,32.40
2018-08-23T11:04:45.016Z,31.40
2018-08-23T11:07:13.350Z,30.90
2018-08-23T11:09:47.298Z,30.80
2018-08-23T11:12:21.015Z,31.10
2018-08-23T11:14:49.379Z,30.90
2018-08-23T11:17:22.975Z,32.20
2018-08-23T11:20:55.175Z,33.90
2018-08-23T11:23:25.327Z,34.90
2018-08-23T11:25:53.779Z,35.10
2018-08-23T11:28:23.537Z,35.50
2018-08-23T11:30:52.623Z,35.90
2018-08-23T11:33:21.043Z,35.90
2018-08-23T11:35:49.488Z,33.60
2018-08-23T11:38:17.767Z,34.80
2018-08-23T11:40:46.232Z,36.00
2018-08-23T11:43:14.682Z,36.90
2018-08-23T11:45:43.139Z,37.20
2018-08-23T11:48:11.519Z,37.30
2018-08-23T11:50:40.995Z,36.30
2018-08-23T11:53:09.553Z,36.70
2018-08-23T11:55:37.968Z,36.90
2018-08-23T11:58:06.456Z,36.70
2018-08-23T12:00:34.954Z,36.90
2018-08-23T12:03:03.402Z,37.20
2018-08-23T12:05:31.914Z,37.20
2018-08-23T12:08:00.374Z,37.60
2018-08-23T12:10:28.895Z,37.50
2018-08-23T12:12:57.337Z,37.20
2018-08-23T12:15:29.479Z,37.00
2018-08-23T12:17:58.415Z,35.80
2018-08-23T12:20:26.795Z,36.40
2018-08-23T12:22:55.267Z,36.70
2018-08-23T12:25:23.775Z,36.80
2018-08-23T12:27:58.095Z,36.70
2018-08-23T12:30:26.546Z,37.10
2018-08-23T12:32:55.011Z,36.80
2018-08-23T12:35:23.562Z,36.50
2018-08-23T12:37:59.914Z,36.80
2018-08-23T12:40:34.811Z,36.40
2018-08-23T12:43:11.636Z,36.80
2018-08-23T12:45:42.220Z,36.50
2018-08-23T12:48:11.828Z,36.20
2018-08-23T12:50:40.871Z,35.80
2018-08-23T12:53:09.331Z,35.60
2018-08-23T12:55:37.784Z,35.20
2018-08-23T12:58:12.260Z,34.70
2018-08-23T13:00:41.710Z,34.10
2018-08-23T13:03:10.273Z,33.60
2018-08-23T13:05:39.089Z,33.10
2018-08-23T13:08:07.559Z,31.90
2018-08-23T13:10:36.859Z,32.10
2018-08-23T13:13:05.343Z,32.70
2018-08-23T13:15:33.772Z,33.10
2018-08-23T13:18:02.731Z,32.80
2018-08-23T13:20:31.179Z,32.90
2018-08-23T13:22:59.616Z,33.30
2018-08-23T13:25:27.959Z,32.70
2018-08-23T13:27:56.435Z,32.80
2018-08-23T13:30:24.820Z,32.50
2018-08-23T13:32:53.240Z,32.10
2018-08-23T13:35:21.802Z,31.80
2018-08-23T13:37:50.258Z,32.60
2018-08-23T13:40:19.552Z,32.80
2018-08-23T13:42:48.600Z,32.60
2018-08-23T13:45:17.527Z,32.50
2018-08-23T13:47:45.927Z,32.30
2018-08-23T13:50:14.372Z,32.30
2018-08-23T13:52:42.814Z,32.00
2018-08-23T13:55:11.159Z,31.90
2018-08-23T13:57:39.663Z,31.90
2018-08-23T14:00:11.961Z,31.80
2018-08-23T14:02:40.510Z,32.00
2018-08-23T14:05:09.024Z,32.20
2018-08-23T14:07:37.455Z,32.10
2018-08-23T14:10:05.804Z,31.90
2018-08-23T14:12:34.297Z,32.20
2018-08-23T14:15:02.818Z,32.30
2018-08-23T14:17:31.185Z,32.20
2018-08-23T14:19:59.683Z,32.20
2018-08-23T14:22:28.095Z,32.50
2018-08-23T14:24:56.488Z,32.60
2018-08-23T14:27:24.866Z,32.50
2018-08-23T14:29:53.290Z,32.70
2018-08-23T14:32:21.784Z,32.00
2018-08-23T14:34:50.179Z,32.20
2018-08-23T14:37:18.555Z,32.50
2018-08-23T14:39:46.925Z,32.90
2018-08-23T14:42:15.276Z,32.60
2018-08-23T14:44:43.659Z,32.20
2018-08-23T14:47:17.512Z,31.80
2018-08-23T14:49:45.949Z,31.80
2018-08-23T14:52:14.329Z,31.70
2018-08-23T14:54:43.220Z,31.60
2018-08-23T14:57:16.855Z,31.30
2018-08-23T14:59:45.484Z,30.90
2018-08-23T15:02:14.072Z,31.20
2018-08-23T15:04:46.347Z,31.60
2018-08-23T15:07:15.128Z,31.80
2018-08-23T15:09:43.524Z,31.90
2018-08-23T15:12:11.983Z,32.30
2018-08-23T15:14:40.363Z,32.40
2018-08-23T15:17:09.534Z,32.30
2018-08-23T15:19:38.115Z,32.30
2018-08-23T15:22:06.938Z,32.20
2018-08-23T15:24:35.356Z,31.80
2018-08-23T15:29:44.052Z,31.70
2018-08-23T15:32:12.287Z,31.50
2018-08-23T15:34:40.600Z,31.20
2018-08-23T15:37:08.820Z,31.00
2018-08-23T15:39:40.212Z,30.90
2018-08-23T15:42:08.414Z,30.80
2018-08-23T15:44:36.595Z,30.40
2018-08-23T15:47:04.802Z,30.30
2018-08-23T15:49:33.043Z,30.70
2018-08-23T15:52:01.248Z,31.00
2018-08-23T15:54:29.488Z,30.90
2018-08-23T15:56:57.670Z,31.10
2018-08-23T15:59:25.848Z,31.10
2018-08-23T16:01:54.146Z,30.90
2018-08-23T16:04:22.418Z,30.90
2018-08-23T16:06:50.831Z,30.90
2018-08-23T16:09:19.290Z,30.90
2018-08-23T16:11:47.715Z,30.80
2018-08-23T16:14:16.194Z,30.70
2018-08-23T16:16:50.103Z,30.70
2018-08-23T16:19:23.885Z,30.70
2018-08-23T16:21:58.688Z,30.60
2018-08-23T16:24:27.798Z,30.50
2018-08-23T16:27:01.535Z,30.50
2018-08-23T16:29:29.978Z,30.40
2018-08-23T16:31:58.592Z,30.30
2018-08-23T16:34:27.785Z,30.30
2018-08-23T16:36:56.223Z,30.30
2018-08-23T16:39:24.627Z,30.20
2018-08-23T16:41:53.000Z,30.20
2018-08-23T16:44:21.391Z,30.20
2018-08-23T16:46:49.863Z,30.10
2018-08-23T16:49:18.271Z,30.10
2018-08-23T16:51:46.635Z,30.20
2018-08-23T16:54:15.048Z,30.10
2018-08-23T16:56:43.392Z,30.00
2018-08-23T16:59:11.775Z,29.90
2018-08-23T17:01:40.143Z,29.70
2018-08-23T17:04:08.541Z,29.80
2018-08-23T17:06:36.955Z,29.50
2018-08-23T17:09:08.285Z,29.60
2018-08-23T17:11:36.674Z,29.60
2018-08-23T17:14:04.995Z,29.20
2018-08-23T17:16:38.646Z,28.90
2018-08-23T17:19:07.140Z,28.00
2018-08-23T17:21:35.401Z,26.60
2018-08-23T17:24:03.810Z,26.10
2018-08-23T17:26:32.279Z,25.70
2018-08-23T17:29:00.734Z,25.30
2018-08-23T17:31:29.159Z,25.00
2018-08-23T17:33:57.555Z,24.30
2018-08-23T17:36:25.974Z,24.00
2018-08-23T17:38:54.366Z,24.50
2018-08-23T17:41:22.788Z,24.80
2018-08-23T17:43:51.211Z,25.00
2018-08-23T17:46:19.712Z,25.10
2018-08-23T17:48:48.198Z,25.30
2018-08-23T17:51:16.630Z,25.70
2018-08-23T17:53:45.020Z,25.90
2018-08-23T17:56:13.370Z,25.90
2018-08-23T17:58:41.837Z,26.10
2018-08-23T18:01:10.241Z,25.90
2018-08-23T18:03:38.728Z,26.00
2018-08-23T18:06:07.197Z,25.90
2018-08-23T18:08:35.613Z,26.10
2018-08-23T18:11:03.997Z,26.10
2018-08-23T18:13:32.302Z,26.30
2018-08-23T18:16:05.879Z,26.40
2018-08-23T18:18:34.367Z,26.30
2018-08-23T18:21:02.847Z,25.60
2018-08-23T18:23:31.163Z,25.00
2018-08-23T18:25:59.554Z,24.90
2018-08-23T18:28:28.002Z,25.00
2018-08-23T18:30:56.388Z,25.30
2018-08-23T18:33:24.889Z,24.80
2018-08-23T18:35:53.242Z,24.50
2018-08-23T18:38:21.716Z,23.90
2018-08-23T18:40:50.183Z,23.90
2018-08-23T18:43:18.705Z,23.90
2018-08-23T18:45:47.031Z,23.60
2018-08-23T18:48:15.492Z,23.30
2018-08-23T18:50:43.923Z,23.10
2018-08-23T18:53:12.353Z,23.20
2018-08-23T18:55:40.819Z,23.60
2018-08-23T18:58:09.178Z,23.90
2018-08-23T19:00:37.639Z,24.10
2018-08-23T19:03:06.085Z,24.30
2018-08-23T19:05:34.560Z,24.30
2018-08-23T19:08:02.958Z,22.80
2018-08-23T19:10:31.295Z,21.90
2018-08-23T19:12:59.727Z,21.70
2018-08-23T19:15:33.273Z,21.80
2018-08-23T19:18:01.738Z,21.70
2018-08-23T19:20:30.156Z,21.90
2018-08-23T19:22:58.595Z,21.40
2018-08-23T19:25:27.027Z,21.00
2018-08-23T19:27:55.559Z,21.00
2018-08-23T19:30:24.005Z,21.10
2018-08-23T19:32:52.522Z,21.40
2018-08-23T19:35:20.963Z,21.30
2018-08-23T19:37:49.368Z,21.30
2018-08-23T19:40:17.759Z,21.40
2018-08-23T19:42:46.115Z,21.10
2018-08-23T19:45:14.589Z,21.20
2018-08-23T19:47:43.917Z,21.70
2018-08-23T19:50:13.174Z,22.00
2018-08-23T19:52:41.560Z,22.10
2018-08-23T19:55:10.608Z,22.10
2018-08-23T19:57:40.181Z,21.90
2018-08-23T20:00:09.870Z,21.70
2018-08-23T20:02:38.185Z,21.50
2018-08-23T20:05:06.771Z,21.60
2018-08-23T20:07:35.338Z,21.60
2018-08-23T20:10:03.784Z,21.50
2018-08-23T20:12:32.270Z,21.30
2018-08-23T20:15:00.625Z,21.30
2018-08-23T20:17:29.055Z,21.30
2018-08-23T20:19:57.663Z,21.30
2018-08-23T20:22:26.131Z,21.30
2018-08-23T20:24:54.667Z,21.40
2018-08-23T20:27:23.148Z,21.10
2018-08-23T20:29:51.541Z,20.60
2018-08-23T20:32:20.002Z,20.70
2018-08-23T20:34:48.482Z,20.30
2018-08-23T20:37:16.896Z,20.30
2018-08-23T20:39:45.396Z,20.50
2018-08-23T20:42:13.755Z,20.40
2018-08-23T20:44:42.162Z,20.70
2018-08-23T20:47:10.655Z,20.90
2018-08-23T20:49:39.140Z,21.00
2018-08-23T20:52:07.522Z,21.10
2018-08-23T20:54:35.854Z,21.10
2018-08-23T20:57:04.339Z,21.20
2018-08-23T20:59:32.799Z,21.10
2018-08-23T21:02:01.107Z,21.20
2018-08-23T21:04:29.555Z,21.20
2018-08-23T21:06:57.973Z,21.20
2018-08-23T21:09:26.454Z,21.10
2018-08-23T21:11:54.867Z,21.20
2018-08-23T21:14:23.274Z,20.30
2018-08-23T21:16:51.807Z,20.00
2018-08-23T21:19:20.299Z,20.40
2018-08-23T21:21:48.966Z,20.60
2018-08-23T21:24:17.387Z,20.90
2018-08-23T21:26:45.832Z,21.10
2018-08-23T21:29:14.224Z,21.10
2018-08-23T21:31:42.595Z,21.20
2018-08-23T21:34:10.947Z,21.10
2018-08-23T21:36:39.491Z,21.00
2018-08-23T21:39:08.960Z,20.30
2018-08-23T21:41:37.447Z,20.40
2018-08-23T21:44:05.798Z,20.60
2018-08-23T21:46:34.236Z,20.70
2018-08-23T21:49:02.664Z,20.80
2018-08-23T21:51:31.126Z,20.80
2018-08-23T21:53:59.534Z,20.50
2018-08-23T21:56:28.015Z,20.60
2018-08-23T21:58:56.538Z,20.60
2018-08-23T22:01:24.990Z,20.60
2018-08-23T22:03:53.531Z,20.60
2018-08-23T22:06:22.016Z,20.60
2018-08-23T22:08:50.459Z,20.60
2018-08-23T22:11:18.789Z,20.60
2018-08-23T22:13:47.247Z,20.50
2018-08-23T22:16:15.672Z,20.50
2018-08-23T22:18:44.050Z,20.30
2018-08-23T22:21:12.402Z,20.20
2018-08-23T22:23:40.863Z,20.10
2018-08-23T22:26:09.312Z,20.10
2018-08-23T22:28:37.709Z,20.10
2018-08-23T22:31:06.373Z,20.00
2018-08-23T22:33:34.731Z,20.00
2018-08-23T22:36:03.220Z,20.00
2018-08-23T22:38:31.725Z,20.00
2018-08-23T22:41:00.174Z,19.90
2018-08-23T22:43:28.514Z,19.90
2018-08-23T22:45:56.925Z,19.90
2018-08-23T22:48:25.275Z,20.00
2018-08-23T22:50:53.683Z,19.90
2018-08-23T22:53:22.154Z,20.00
2018-08-23T22:55:50.712Z,19.90
2018-08-23T22:58:19.146Z,19.70
2018-08-23T23:00:47.584Z,19.80
2018-08-23T23:04:22.778Z,19.90
2018-08-23T23:06:51.206Z,19.90
2018-08-23T23:09:19.660Z,19.80
2018-08-23T23:11:48.123Z,19.80
2018-08-23T23:14:16.627Z,19.90
2018-08-23T23:16:45.011Z,19.90
2018-08-23T23:19:13.553Z,20.00
2018-08-23T23:21:42.003Z,19.90
2018-08-23T23:24:15.363Z,19.80
2018-08-23T23:26:43.694Z,19.70
2018-08-23T23:29:12.069Z,19.70
2018-08-23T23:31:40.555Z,19.60
2018-08-23T23:34:08.911Z,19.50
2018-08-23T23:36:37.401Z,19.50
2018-08-23T23:39:06.919Z,19.40
2018-08-23T23:41:35.273Z,19.40
2018-08-23T23:44:03.781Z,19.30
2018-08-23T23:46:32.215Z,19.30
2018-08-23T23:49:00.668Z,19.30
2018-08-23T23:51:29.119Z,19.20
2018-08-23T23:53:57.548Z,19.30
2018-08-23T23:56:26.088Z,19.20
2018-08-23T23:58:54.523Z,19.10
